Time;durP1;ratioP1;P1;durP2;ratioP2;P2;SDS_P1;SDS_P2;PMS_P1;PMS_P2;Temp;Humidity;BMP_temperature;BMP_pressure;BME280_temperature;BME280_humidity;BME280_pressure;Samples;Min_cycle;Max_cycle;Signal;HPM_P1;HPM_P2
2020/12/10 00:00:27;;;;;;;21.88;9.88;;;1.30;93.70;;;;;;5029687;28;20145;-75
2020/12/10 00:02:54;;;;;;;16.58;9.30;;;1.20;94.10;;;;;;5028617;28;20046;-75
2020/12/10 00:05:20;;;;;;;16.95;9.50;;;1.20;94.10;;;;;;5029120;28;20053;-75
2020/12/10 00:07:46;;;;;;;20.55;10.63;;;1.20;93.80;;;;;;5029200;28;20152;-75
2020/12/10 00:10:13;;;;;;;18.30;10.65;;;1.20;94.00;;;;;;5028635;28;20069;-74
2020/12/10 00:12:41;;;;;;;18.20;10.50;;;1.20;93.90;;;;;;5029052;28;20045;-74
2020/12/10 00:15:08;;;;;;;20.23;11.20;;;1.10;94.10;;;;;;5028804;28;20041;-75
2020/12/10 00:17:35;;;;;;;20.48;12.00;;;1.10;94.10;;;;;;5025726;28;20041;-75
2020/12/10 00:20:04;;;;;;;20.63;11.15;;;1.10;94.10;;;;;;5028630;28;20506;-75
2020/12/10 00:22:33;;;;;;;20.90;11.30;;;1.00;94.80;;;;;;5029347;28;20080;-75
2020/12/10 00:25:00;;;;;;;21.13;10.90;;;0.90;94.80;;;;;;5011017;28;20292;-74
2020/12/10 00:27:26;;;;;;;21.67;12.40;;;0.90;95.10;;;;;;5028721;28;20128;-74
2020/12/10 00:29:57;;;;;;;22.10;12.75;;;1.00;94.80;;;;;;5029002;28;21203;-75
2020/12/10 00:32:26;;;;;;;24.83;13.35;;;1.00;94.60;;;;;;5028599;28;20053;-75
2020/12/10 00:34:56;;;;;;;25.20;14.38;;;1.00;94.70;;;;;;5028589;28;20045;-75
2020/12/10 00:37:27;;;;;;;24.05;12.27;;;0.90;95.00;;;;;;5028609;28;20077;-74
2020/12/10 00:39:55;;;;;;;29.15;14.10;;;0.70;95.50;;;;;;5028712;28;20372;-74
2020/12/10 00:42:22;;;;;;;22.45;12.50;;;0.70;95.60;;;;;;5029300;28;20140;-75
2020/12/10 00:44:48;;;;;;;27.52;13.73;;;0.80;95.60;;;;;;5028547;28;20045;-75
2020/12/10 00:47:19;;;;;;;27.42;13.25;;;0.90;95.40;;;;;;5028140;28;20053;-75
2020/12/10 00:49:46;;;;;;;27.30;15.00;;;0.90;95.10;;;;;;5026106;28;20049;-75
2020/12/10 00:52:14;;;;;;;26.83;14.35;;;0.80;95.50;;;;;;5027676;28;20077;-75
2020/12/10 00:54:40;;;;;;;27.98;15.35;;;0.70;95.60;;;;;;5028586;28;20092;-75
2020/12/10 00:57:10;;;;;;;30.23;15.73;;;0.80;95.40;;;;;;5029141;28;20128;-75
2020/12/10 00:59:38;;;;;;;29.58;15.80;;;0.90;95.20;;;;;;5028037;28;20055;-75
2020/12/10 01:02:06;;;;;;;33.10;16.88;;;1.00;95.10;;;;;;5029170;28;20132;-75
2020/12/10 01:04:33;;;;;;;24.48;13.70;;;1.00;95.00;;;;;;5028374;28;20134;-75
2020/12/10 01:06:59;;;;;;;28.60;14.73;;;1.00;95.10;;;;;;5028176;28;20041;-74
2020/12/10 01:09:26;;;;;;;29.98;16.92;;;1.00;95.10;;;;;;5028029;28;20161;-75
2020/12/10 01:11:52;;;;;;;29.73;15.20;;;1.00;94.90;;;;;;5028536;28;20499;-75
2020/12/10 01:14:19;;;;;;;33.03;16.90;;;0.90;95.00;;;;;;5027809;28;20046;-74
2020/12/10 01:16:48;;;;;;;26.95;15.07;;;0.90;95.20;;;;;;5028334;28;20455;-74
2020/12/10 01:19:15;;;;;;;33.03;16.05;;;0.90;95.00;;;;;;5029117;28;20110;-75
2020/12/10 01:21:42;;;;;;;33.60;17.15;;;1.00;95.20;;;;;;5026895;28;20479;-75
2020/12/10 01:24:11;;;;;;;35.63;17.88;;;0.90;95.30;;;;;;5031343;28;20041;-74
2020/12/10 01:26:38;;;;;;;32.97;16.38;;;0.90;95.30;;;;;;5032756;28;20050;-74
2020/12/10 01:29:05;;;;;;;31.42;16.80;;;0.90;95.40;;;;;;5029205;28;20124;-75
2020/12/10 01:31:31;;;;;;;34.28;17.70;;;0.90;95.40;;;;;;5032666;28;20046;-75
2020/12/10 01:33:59;;;;;;;27.63;15.30;;;0.90;95.50;;;;;;5031446;28;20038;-74
2020/12/10 01:36:28;;;;;;;37.97;19.30;;;0.90;95.40;;;;;;5032537;28;20486;-76
2020/12/10 01:38:56;;;;;;;28.58;16.35;;;1.00;95.30;;;;;;5030096;28;20506;-75
2020/12/10 01:41:33;;;;;;;32.28;15.85;;;1.00;95.20;;;;;;5032508;28;20132;-75
2020/12/10 01:44:09;;;;;;;34.75;17.08;;;1.00;95.10;;;;;;5029808;28;20639;-75
2020/12/10 01:46:37;;;;;;;25.77;14.02;;;1.10;95.00;;;;;;5030087;28;20132;-75
2020/12/10 01:49:06;;;;;;;30.65;16.15;;;1.10;94.80;;;;;;5030698;28;20045;-75
2020/12/10 01:51:33;;;;;;;30.40;16.40;;;1.10;94.70;;;;;;5032086;28;20471;-74
2020/12/10 01:54:01;;;;;;;32.47;15.60;;;1.10;94.80;;;;;;5030758;28;20400;-74
2020/12/10 01:56:27;;;;;;;27.55;15.15;;;1.10;94.70;;;;;;5031856;28;20106;-74
2020/12/10 01:58:54;;;;;;;32.67;16.38;;;1.00;94.80;;;;;;5030555;28;20050;-75
2020/12/10 02:01:21;;;;;;;27.50;15.07;;;0.90;94.80;;;;;;5031457;28;20587;-75
2020/12/10 02:03:47;;;;;;;33.40;17.73;;;0.90;95.20;;;;;;5031014;28;20049;-75
2020/12/10 02:06:14;;;;;;;29.05;16.13;;;0.80;95.10;;;;;;5031699;28;20103;-75
2020/12/10 02:08:44;;;;;;;33.67;17.52;;;0.80;95.30;;;;;;5028465;28;20464;-75
2020/12/10 02:11:11;;;;;;;30.10;16.13;;;0.70;95.60;;;;;;5031739;28;20077;-75
2020/12/10 02:13:38;;;;;;;30.77;16.08;;;0.80;95.70;;;;;;5029935;28;20087;-75
2020/12/10 02:16:06;;;;;;;28.42;15.30;;;0.80;95.30;;;;;;5031793;28;20132;-75
2020/12/10 02:18:33;;;;;;;35.40;17.55;;;0.80;95.30;;;;;;5030142;28;20128;-75
2020/12/10 02:20:59;;;;;;;29.27;16.50;;;0.80;95.40;;;;;;5030724;28;20053;-75
2020/12/10 02:23:26;;;;;;;32.42;16.35;;;0.70;95.60;;;;;;5030783;28;20425;-75
2020/12/10 02:25:52;;;;;;;34.55;17.33;;;0.70;95.80;;;;;;5031351;28;20190;-75
2020/12/10 02:28:19;;;;;;;37.30;19.02;;;0.70;95.80;;;;;;5030300;28;20104;-75
2020/12/10 02:30:47;;;;;;;35.80;17.65;;;0.70;95.70;;;;;;5031504;28;20144;-74
2020/12/10 02:33:14;;;;;;;38.22;18.77;;;0.70;95.80;;;;;;5029623;28;20136;-75
2020/12/10 02:35:42;;;;;;;30.65;16.98;;;0.60;95.80;;;;;;5030391;28;20320;-75
2020/12/10 02:38:10;;;;;;;40.45;18.58;;;0.60;95.90;;;;;;5029027;28;20128;-75
2020/12/10 02:40:40;;;;;;;35.38;17.80;;;0.60;95.70;;;;;;5029233;28;20069;-75
2020/12/10 02:43:10;;;;;;;37.88;18.80;;;0.60;95.90;;;;;;5029890;28;20049;-75
2020/12/10 02:45:38;;;;;;;33.55;17.27;;;0.60;96.10;;;;;;5030866;28;20049;-75
2020/12/10 02:48:05;;;;;;;33.60;16.33;;;0.60;96.00;;;;;;5028122;28;20159;-74
2020/12/10 02:50:31;;;;;;;35.10;17.95;;;0.70;95.80;;;;;;5030389;28;20049;-75
2020/12/10 02:52:58;;;;;;;42.25;19.88;;;0.70;95.90;;;;;;5027931;28;20336;-75
2020/12/10 02:55:24;;;;;;;41.10;19.05;;;0.70;95.90;;;;;;5029555;28;20045;-75
2020/12/10 02:57:51;;;;;;;37.50;18.50;;;0.60;96.00;;;;;;5030510;28;20145;-75
2020/12/10 03:00:17;;;;;;;37.50;18.88;;;0.60;96.00;;;;;;5030338;28;20143;-75
2020/12/10 03:02:44;;;;;;;40.10;19.52;;;0.70;95.90;;;;;;5028684;28;20077;-75
2020/12/10 03:05:10;;;;;;;36.47;17.85;;;0.60;96.00;;;;;;5030187;28;20095;-74
2020/12/10 03:07:37;;;;;;;35.05;17.95;;;0.60;96.10;;;;;;5027785;28;20083;-75
2020/12/10 03:10:04;;;;;;;35.33;18.92;;;0.40;96.40;;;;;;5029447;28;20069;-75
2020/12/10 03:12:32;;;;;;;36.75;16.88;;;0.30;96.70;;;;;;5028871;28;20465;-75
2020/12/10 03:14:58;;;;;;;35.95;18.77;;;0.40;96.70;;;;;;5030045;28;20494;-74
2020/12/10 03:17:26;;;;;;;33.15;17.13;;;0.40;96.30;;;;;;5026699;28;20045;-75
2020/12/10 03:19:54;;;;;;;32.97;17.85;;;0.50;96.10;;;;;;5029488;28;20103;-74
2020/12/10 03:22:21;;;;;;;33.28;17.45;;;0.50;96.10;;;;;;5029021;28;20045;-74
2020/12/10 03:24:48;;;;;;;38.42;19.10;;;0.50;95.90;;;;;;5028910;28;20387;-74
2020/12/10 03:27:14;;;;;;;44.38;21.40;;;0.60;95.90;;;;;;5026558;28;20436;-74
2020/12/10 03:29:41;;;;;;;41.47;20.30;;;0.60;95.90;;;;;;5030367;28;20466;-74
2020/12/10 03:32:07;;;;;;;39.05;18.10;;;0.60;95.90;;;;;;5028386;28;20073;-75
2020/12/10 03:34:34;;;;;;;37.97;18.55;;;0.60;95.80;;;;;;5029163;28;20060;-74
2020/12/10 03:37:03;;;;;;;37.58;19.10;;;0.40;96.10;;;;;;5026883;28;20051;-75
2020/12/10 03:39:30;;;;;;;38.67;20.10;;;0.40;96.20;;;;;;5028566;28;20125;-76
2020/12/10 03:41:59;;;;;;;40.53;20.63;;;0.50;96.10;;;;;;5028234;28;20075;-75
2020/12/10 03:44:26;;;;;;;36.72;18.73;;;0.50;96.20;;;;;;5028524;28;20213;-75
2020/12/10 03:46:53;;;;;;;39.92;20.10;;;0.50;96.10;;;;;;5028389;28;20049;-74
2020/12/10 03:49:20;;;;;;;46.03;21.30;;;0.50;96.20;;;;;;5028837;28;20057;-74
2020/12/10 03:51:47;;;;;;;38.88;19.27;;;0.50;96.20;;;;;;5027694;28;20145;-76
2020/12/10 03:54:14;;;;;;;43.55;22.35;;;0.40;96.40;;;;;;5027179;28;20073;-75
2020/12/10 03:56:40;;;;;;;43.10;19.60;;;0.50;96.20;;;;;;5028724;28;20109;-75
2020/12/10 03:59:07;;;;;;;55.35;25.00;;;0.60;96.00;;;;;;5026620;28;20045;-75
2020/12/10 04:01:34;;;;;;;39.45;19.40;;;0.60;95.90;;;;;;5027834;28;20227;-76
2020/12/10 04:04:01;;;;;;;46.60;22.40;;;0.60;96.00;;;;;;5027931;28;20064;-75
2020/12/10 04:06:27;;;;;;;44.15;21.48;;;0.70;95.80;;;;;;5028104;28;20053;-75
2020/12/10 04:08:54;;;;;;;37.55;17.95;;;0.70;95.60;;;;;;5026426;28;20077;-75
2020/12/10 04:11:21;;;;;;;37.72;19.00;;;0.70;95.60;;;;;;5028916;28;20135;-74
2020/12/10 04:13:48;;;;;;;36.42;17.38;;;0.70;95.70;;;;;;5028714;28;20124;-74
2020/12/10 04:16:14;;;;;;;30.63;16.55;;;0.70;95.70;;;;;;5028004;28;20129;-74
2020/12/10 04:18:42;;;;;;;37.75;19.05;;;0.70;95.60;;;;;;5027868;28;20072;-75
2020/12/10 04:21:10;;;;;;;41.50;20.05;;;0.70;95.60;;;;;;5028545;28;20128;-74
2020/12/10 04:23:37;;;;;;;42.35;18.90;;;0.70;95.80;;;;;;5028354;28;20128;-74
2020/12/10 04:26:03;;;;;;;39.22;19.75;;;0.70;95.70;;;;;;5028356;28;20099;-74
2020/12/10 04:28:30;;;;;;;41.97;20.98;;;0.70;96.00;;;;;;5028080;28;20346;-75
2020/12/10 04:30:57;;;;;;;35.20;19.05;;;0.60;95.70;;;;;;5028735;28;20107;-75
2020/12/10 04:33:23;;;;;;;29.33;16.17;;;0.60;95.90;;;;;;5026847;28;20073;-74
2020/12/10 04:35:50;;;;;;;36.60;19.75;;;0.60;95.70;;;;;;5028667;28;20045;-75
2020/12/10 04:38:16;;;;;;;33.83;17.92;;;0.70;95.70;;;;;;5027025;28;20129;-74
2020/12/10 04:40:43;;;;;;;33.42;18.38;;;0.80;95.60;;;;;;5028936;28;20115;-74
2020/12/10 04:43:11;;;;;;;25.35;14.43;;;0.80;95.50;;;;;;5025577;28;20133;-74
2020/12/10 04:45:38;;;;;;;33.63;17.17;;;0.80;95.30;;;;;;5028567;28;20140;-75
2020/12/10 04:48:05;;;;;;;29.92;16.60;;;0.80;95.30;;;;;;5026954;28;20128;-74
2020/12/10 04:50:34;;;;;;;28.42;14.77;;;0.80;95.40;;;;;;5027767;28;20049;-76
2020/12/10 04:53:01;;;;;;;27.48;14.15;;;0.80;95.20;;;;;;5027371;28;20136;-74
2020/12/10 04:55:27;;;;;;;29.08;14.30;;;0.70;95.30;;;;;;5028554;28;20111;-75
2020/12/10 04:57:57;;;;;;;30.17;16.05;;;0.80;95.30;;;;;;5028976;28;20045;-74
2020/12/10 05:00:24;;;;;;;35.50;18.10;;;0.80;95.30;;;;;;5031836;28;20511;-74
2020/12/10 05:02:51;;;;;;;32.50;17.55;;;0.80;95.20;;;;;;5031055;28;20068;-75
2020/12/10 05:05:28;;;;;;;32.42;16.02;;;0.80;95.30;;;;;;5031264;28;20057;-75
2020/12/10 05:07:59;;;;;;;30.88;15.93;;;0.80;95.30;;;;;;5028188;28;20576;-74
2020/12/10 05:10:26;;;;;;;33.53;17.98;;;0.70;95.50;;;;;;5031371;28;20165;-74
2020/12/10 05:13:07;;;;;;;32.25;17.08;;;0.80;95.50;;;;;;5031991;28;20136;-74
2020/12/10 05:15:35;;;;;;;39.05;19.08;;;0.70;95.40;;;;;;5031394;28;20045;-74
2020/12/10 05:18:13;;;;;;;39.65;19.05;;;0.70;95.60;;;;;;5028658;28;20111;-75
2020/12/10 05:20:57;;;;;;;40.67;19.90;;;0.70;95.70;;;;;;5031001;28;20049;-75
2020/12/10 05:23:30;;;;;;;40.13;18.25;;;0.70;95.60;;;;;;5025340;28;20072;-74
2020/12/10 05:25:57;;;;;;;33.65;18.13;;;0.70;95.50;;;;;;5031203;28;20130;-74
2020/12/10 05:28:25;;;;;;;31.42;16.92;;;0.80;95.50;;;;;;5030323;28;20052;-75
2020/12/10 05:31:02;;;;;;;35.38;19.10;;;0.70;95.50;;;;;;5030912;28;20451;-74
2020/12/10 05:33:29;;;;;;;38.13;18.77;;;0.70;95.80;;;;;;5031004;28;20049;-75
2020/12/10 05:36:11;;;;;;;36.60;18.88;;;0.70;95.80;;;;;;5030574;28;20124;-75
2020/12/10 05:39:05;;;;;;;33.17;16.33;;;0.80;95.70;;;;;;5030423;28;20132;-75
2020/12/10 05:41:33;;;;;;;30.60;15.13;;;0.80;95.70;;;;;;5032302;28;20486;-74
2020/12/10 05:44:20;;;;;;;35.25;18.08;;;0.90;95.30;;;;;;5030099;28;20128;-75
2020/12/10 05:46:51;;;;;;;31.45;17.83;;;0.90;95.10;;;;;;5028819;28;20192;-74
2020/12/10 05:49:18;;;;;;;29.02;15.30;;;0.90;94.90;;;;;;5031136;28;20099;-75
2020/12/10 05:51:49;;;;;;;33.70;16.90;;;0.90;94.80;;;;;;5031578;28;20057;-74
2020/12/10 05:54:18;;;;;;;31.33;17.33;;;0.90;94.70;;;;;;5031417;28;20428;-74
2020/12/10 05:56:56;;;;;;;36.05;18.48;;;1.00;95.10;;;;;;5031381;28;20095;-74
2020/12/10 05:59:24;;;;;;;32.63;18.05;;;0.90;94.90;;;;;;5031470;28;20077;-74
2020/12/10 06:01:50;;;;;;;33.83;17.75;;;1.00;95.00;;;;;;5031492;28;20057;-74
2020/12/10 06:04:17;;;;;;;34.95;18.58;;;0.90;94.90;;;;;;5032108;28;20065;-74
2020/12/10 06:06:49;;;;;;;32.25;17.13;;;0.90;95.20;;;;;;5031099;28;20081;-74
2020/12/10 06:09:18;;;;;;;34.80;18.35;;;0.90;95.20;;;;;;5031172;28;20077;-74
2020/12/10 06:11:45;;;;;;;32.03;18.10;;;0.90;95.00;;;;;;5012072;28;20046;-73
2020/12/10 06:14:12;;;;;;;30.08;15.75;;;0.90;95.10;;;;;;5025984;28;20069;-74
2020/12/10 06:16:39;;;;;;;33.03;17.50;;;0.90;95.30;;;;;;5030996;28;20153;-73
2020/12/10 06:19:08;;;;;;;41.45;19.00;;;0.90;95.20;;;;;;5031416;28;20084;-73
2020/12/10 06:21:37;;;;;;;34.92;18.08;;;0.90;95.30;;;;;;5031122;28;20133;-74
2020/12/10 06:24:25;;;;;;;35.92;19.35;;;0.90;95.10;;;;;;5029604;28;20080;-74
2020/12/10 06:26:54;;;;;;;36.78;17.75;;;0.90;95.10;;;;;;5029124;28;20045;-75
2020/12/10 06:29:21;;;;;;;31.48;16.70;;;1.00;94.90;;;;;;5029329;28;20080;-74
2020/12/10 06:32:16;;;;;;;29.60;16.10;;;1.00;94.90;;;;;;5030902;28;20516;-74
2020/12/10 06:34:53;;;;;;;34.67;17.58;;;1.10;94.90;;;;;;5031017;28;20137;-75
2020/12/10 06:37:20;;;;;;;30.02;15.85;;;1.10;94.80;;;;;;5030330;28;20042;-74
2020/12/10 06:39:49;;;;;;;35.65;19.35;;;1.10;94.80;;;;;;5031152;28;20076;-74
2020/12/10 06:42:16;;;;;;;36.55;18.83;;;1.10;94.80;;;;;;5031135;28;20220;-75
2020/12/10 06:44:42;;;;;;;27.25;14.57;;;1.10;94.90;;;;;;5031805;28;20069;-74
2020/12/10 06:47:09;;;;;;;29.80;15.70;;;1.20;94.90;;;;;;5013257;28;20136;-75
2020/12/10 06:49:37;;;;;;;30.33;14.68;;;1.20;94.70;;;;;;5031144;28;20061;-74
2020/12/10 06:52:18;;;;;;;28.10;15.40;;;1.30;94.70;;;;;;5029322;28;20041;-74
2020/12/10 06:55:13;;;;;;;28.35;14.10;;;1.30;94.40;;;;;;5030205;28;20487;-74
2020/12/10 06:57:53;;;;;;;27.00;15.73;;;1.30;94.20;;;;;;5016898;28;20258;-74
2020/12/10 07:00:36;;;;;;;16.42;7.97;;;1.30;94.30;;;;;;5028541;28;20077;-75
2020/12/10 07:03:22;;;;;;;10.43;5.72;;;1.30;92.30;;;;;;5027540;28;20049;-75
2020/12/10 07:05:49;;;;;;;8.77;4.15;;;1.30;91.70;;;;;;5030424;28;20084;-75
2020/12/10 07:08:18;;;;;;;8.05;3.70;;;1.30;91.50;;;;;;5029202;28;20136;-75
2020/12/10 07:10:47;;;;;;;8.32;3.70;;;1.30;91.60;;;;;;5028676;28;20146;-75
2020/12/10 07:13:16;;;;;;;6.43;3.00;;;1.30;90.80;;;;;;5027841;28;20447;-75
2020/12/10 07:15:49;;;;;;;6.80;3.33;;;1.20;90.80;;;;;;5030818;28;20042;-75
2020/12/10 07:18:16;;;;;;;;;;;1.30;90.90;;;;;;5029758;28;20542;-75
2020/12/10 07:20:42;;;;;;;5.85;2.85;;;1.30;90.80;;;;;;5027660;28;19932;-75
2020/12/10 07:23:09;;;;;;;6.63;3.05;;;1.40;90.80;;;;;;5029163;28;20141;-75
2020/12/10 07:25:35;;;;;;;8.23;4.10;;;1.40;90.70;;;;;;5029826;28;20182;-75
2020/12/10 07:28:01;;;;;;;7.65;3.75;;;1.40;91.00;;;;;;5029546;28;20550;-75
2020/12/10 07:30:30;;;;;;;8.82;4.47;;;1.40;90.80;;;;;;5030241;28;20049;-75
2020/12/10 07:33:00;;;;;;;8.40;4.40;;;1.50;90.60;;;;;;5029734;28;20088;-75
2020/12/10 07:35:36;;;;;;;9.57;4.63;;;1.50;90.50;;;;;;5028847;28;20053;-75
2020/12/10 07:38:11;;;;;;;9.82;3.90;;;1.40;90.90;;;;;;5029401;28;20069;-75
2020/12/10 07:40:37;;;;;;;7.63;3.72;;;1.50;90.60;;;;;;5029545;28;20104;-75
2020/12/10 07:43:06;;;;;;;8.68;3.85;;;1.50;90.90;;;;;;5027273;28;20140;-75
2020/12/10 07:45:33;;;;;;;7.78;4.13;;;1.50;90.10;;;;;;5016931;28;20052;-75
2020/12/10 07:48:02;;;;;;;7.75;3.63;;;1.60;90.60;;;;;;5018348;28;20052;-75
2020/12/10 07:50:30;;;;;;;7.72;3.60;;;1.60;90.40;;;;;;5023302;28;20457;-75
2020/12/10 07:52:58;;;;;;;6.93;3.53;;;1.60;90.30;;;;;;5036973;28;20119;-75
2020/12/10 07:55:29;;;;;;;7.20;4.07;;;1.60;90.80;;;;;;5015735;28;20051;-75
2020/12/10 07:58:06;;;;;;;11.50;5.65;;;1.60;91.00;;;;;;5018928;28;20046;-73
2020/12/10 08:00:33;;;;;;;8.80;4.53;;;1.70;90.70;;;;;;5022486;28;20053;-73
2020/12/10 08:03:17;;;;;;;8.80;4.13;;;1.70;89.50;;;;;;5018603;28;20132;-73
2020/12/10 08:05:54;;;;;;;5.68;2.78;;;1.70;89.70;;;;;;5029112;28;20477;-73
2020/12/10 08:08:36;;;;;;;6.43;3.05;;;1.60;88.40;;;;;;5028117;28;20490;-74
2020/12/10 08:11:25;;;;;;;7.13;3.60;;;1.50;88.10;;;;;;5026873;28;20132;-74
2020/12/10 08:13:53;;;;;;;5.53;2.83;;;1.50;89.00;;;;;;5026474;28;20103;-74
2020/12/10 08:16:19;;;;;;;7.13;3.25;;;1.50;89.40;;;;;;5029642;28;20069;-74
2020/12/10 08:18:46;;;;;;;5.93;2.80;;;1.50;89.40;;;;;;5029231;28;20052;-74
2020/12/10 08:21:28;;;;;;;7.25;3.33;;;1.50;88.70;;;;;;5028442;28;20526;-74
2020/12/10 08:23:54;;;;;;;6.95;3.67;;;1.50;89.50;;;;;;5028134;28;20110;-74
2020/12/10 08:26:21;;;;;;;5.75;2.83;;;1.40;88.40;;;;;;5028966;28;20081;-74
2020/12/10 08:28:54;;;;;;;6.35;3.15;;;1.50;89.80;;;;;;5028492;28;20465;-74
2020/12/10 08:31:23;;;;;;;7.28;3.45;;;1.60;90.00;;;;;;5028665;28;20077;-74
2020/12/10 08:33:51;;;;;;;6.82;3.38;;;1.60;89.40;;;;;;5029092;28;20115;-74
2020/12/10 08:36:24;;;;;;;7.30;3.75;;;1.60;88.50;;;;;;5028792;28;20384;-74
2020/12/10 08:38:55;;;;;;;6.53;3.40;;;1.60;89.10;;;;;;5028446;28;20506;-74
2020/12/10 08:41:33;;;;;;;7.72;3.40;;;1.60;88.80;;;;;;5016491;28;20053;-74
2020/12/10 08:44:05;;;;;;;5.70;3.38;;;1.50;88.10;;;;;;5028621;28;20128;-74
2020/12/10 08:46:34;;;;;;;7.15;3.17;;;1.60;89.10;;;;;;5028651;28;20476;-74
2020/12/10 08:49:21;;;;;;;6.97;3.47;;;1.60;89.00;;;;;;5028405;28;20041;-74
2020/12/10 08:51:49;;;;;;;6.85;3.28;;;1.60;90.10;;;;;;5027723;28;20064;-74
2020/12/10 08:54:16;;;;;;;7.05;3.67;;;1.50;89.30;;;;;;5029119;28;20464;-74
2020/12/10 08:56:43;;;;;;;5.22;2.85;;;1.50;89.30;;;;;;5027565;28;20042;-74
2020/12/10 08:59:10;;;;;;;8.27;3.38;;;1.50;89.10;;;;;;5028441;28;20486;-74
2020/12/10 09:01:36;;;;;;;6.60;3.38;;;1.50;88.80;;;;;;5026936;28;20529;-74
2020/12/10 09:04:03;;;;;;;6.03;3.03;;;1.50;89.30;;;;;;5027953;28;20056;-74
2020/12/10 09:06:34;;;;;;;6.32;3.22;;;1.50;88.90;;;;;;5028115;28;20049;-74
2020/12/10 09:09:04;;;;;;;6.53;3.28;;;1.50;89.80;;;;;;5028565;28;20049;-74
2020/12/10 09:11:30;;;;;;;5.57;3.03;;;1.60;89.20;;;;;;5028921;28;20046;-74
2020/12/10 09:14:00;;;;;;;6.25;2.90;;;1.70;89.40;;;;;;5028016;28;20088;-74
2020/12/10 09:16:27;;;;;;;5.70;3.15;;;1.70;90.00;;;;;;5028246;28;20339;-74
2020/12/10 09:18:55;;;;;;;7.07;3.30;;;1.80;88.50;;;;;;5026015;28;20236;-74
2020/12/10 09:21:22;;;;;;;6.90;3.28;;;1.70;87.80;;;;;;5028514;28;20517;-74
2020/12/10 09:23:48;;;;;;;6.38;3.40;;;1.80;89.30;;;;;;5026847;28;20431;-74
2020/12/10 09:26:15;;;;;;;7.53;3.55;;;1.90;88.80;;;;;;5026276;28;20187;-74
2020/12/10 09:28:43;;;;;;;6.22;3.22;;;2.00;88.00;;;;;;5028118;28;20136;-75
2020/12/10 09:31:09;;;;;;;6.55;3.50;;;2.10;88.00;;;;;;5028166;28;20076;-74
2020/12/10 09:33:35;;;;;;;5.75;3.10;;;2.20;86.90;;;;;;5028023;28;20410;-75
2020/12/10 09:36:02;;;;;;;6.50;3.42;;;2.30;87.40;;;;;;5027876;28;20046;-75
2020/12/10 09:38:28;;;;;;;6.68;4.10;;;2.30;87.80;;;;;;5026063;28;20129;-74
2020/12/10 09:40:55;;;;;;;7.10;3.83;;;2.40;87.30;;;;;;5027296;28;20130;-74
2020/12/10 09:43:22;;;;;;;5.53;2.80;;;2.40;87.40;;;;;;5028231;28;20049;-74
2020/12/10 09:45:57;;;;;;;7.50;3.25;;;2.40;86.50;;;;;;5031909;28;20050;-74
2020/12/10 09:48:23;;;;;;;7.38;3.30;;;2.40;86.90;;;;;;5031474;28;20068;-74
2020/12/10 09:50:50;;;;;;;6.32;3.20;;;2.30;86.80;;;;;;5025306;28;20054;-74
2020/12/10 09:53:24;;;;;;;6.57;3.38;;;2.40;85.90;;;;;;5025433;28;20213;-75
2020/12/10 09:58:21;;;;;;;6.57;3.50;;;2.00;88.30;;;;;;5030558;28;20085;-75
2020/12/10 10:00:50;;;;;;;5.45;2.95;;;2.10;87.10;;;;;;5030200;28;20136;-74
2020/12/10 10:03:18;;;;;;;6.60;2.75;;;2.20;87.50;;;;;;5028840;28;20148;-74
2020/12/10 10:05:55;;;;;;;5.57;2.53;;;2.20;86.60;;;;;;5027238;28;20053;-74
2020/12/10 10:08:24;;;;;;;6.53;2.85;;;2.00;84.80;;;;;;5028066;28;20049;-74
2020/12/10 10:10:50;;;;;;;5.40;2.45;;;1.80;86.00;;;;;;5024414;28;20050;-74
2020/12/10 10:13:17;;;;;;;6.32;2.83;;;1.90;88.20;;;;;;5027280;28;20099;-74
2020/12/10 10:15:45;;;;;;;5.97;2.80;;;1.90;86.00;;;;;;5030592;28;20049;-74
2020/12/10 10:18:12;;;;;;;6.15;3.08;;;1.90;86.20;;;;;;5029858;28;20159;-74
2020/12/10 10:20:38;;;;;;;7.07;3.05;;;1.80;86.20;;;;;;5026158;28;20514;-74
2020/12/10 10:23:05;;;;;;;6.82;3.65;;;1.80;87.60;;;;;;5025036;28;20119;-75
2020/12/10 10:25:31;;;;;;;4.55;2.42;;;1.90;88.70;;;;;;5028988;28;20059;-74
2020/12/10 10:28:02;;;;;;;5.40;3.15;;;2.00;88.40;;;;;;5026796;28;20478;-75
2020/12/10 10:30:29;;;;;;;7.25;3.70;;;2.20;88.00;;;;;;5028628;28;20088;-74
2020/12/10 10:32:56;;;;;;;6.03;2.85;;;2.20;86.50;;;;;;5028455;28;20504;-75
2020/12/10 10:35:24;;;;;;;9.15;3.63;;;2.30;87.40;;;;;;5031178;28;20490;-75
2020/12/10 10:37:51;;;;;;;5.57;3.17;;;2.30;84.40;;;;;;5029815;28;20046;-75
2020/12/10 10:40:18;;;;;;;7.18;3.53;;;2.30;84.40;;;;;;5029931;28;20528;-75
2020/12/10 10:42:46;;;;;;;9.95;4.28;;;2.40;85.20;;;;;;5030428;28;20041;-75
2020/12/10 10:45:12;;;;;;;7.10;3.08;;;2.50;85.50;;;;;;5029987;28;20041;-75
2020/12/10 10:47:38;;;;;;;5.65;2.97;;;2.50;85.40;;;;;;5029366;28;20041;-75
2020/12/10 10:50:05;;;;;;;5.93;2.90;;;2.50;84.60;;;;;;5029788;28;20399;-75
2020/12/10 10:52:32;;;;;;;6.75;3.10;;;2.40;87.10;;;;;;5027279;28;20045;-74
2020/12/10 10:54:58;;;;;;;6.47;3.38;;;2.70;86.70;;;;;;5026991;28;20130;-75
2020/12/10 10:57:25;;;;;;;5.38;2.72;;;2.80;83.00;;;;;;5026186;28;20140;-74
2020/12/10 10:59:51;;;;;;;6.60;3.67;;;2.90;83.70;;;;;;5029286;28;20069;-74
2020/12/10 11:02:18;;;;;;;5.32;2.53;;;2.80;83.30;;;;;;5030305;28;20136;-74
2020/12/10 11:04:44;;;;;;;7.13;3.50;;;2.80;83.80;;;;;;5028417;28;20053;-74
2020/12/10 11:07:11;;;;;;;7.82;3.10;;;2.90;84.30;;;;;;5028852;28;20187;-74
2020/12/10 11:09:37;;;;;;;6.15;3.17;;;2.80;83.70;;;;;;5030818;28;20136;-74
2020/12/10 11:12:03;;;;;;;6.88;3.15;;;2.80;83.40;;;;;;5025935;28;20049;-74
2020/12/10 11:14:30;;;;;;;4.95;2.63;;;2.90;83.10;;;;;;5025877;28;20147;-74
2020/12/10 11:16:57;;;;;;;4.88;2.85;;;3.00;83.20;;;;;;5029211;28;20576;-74
2020/12/10 11:19:24;;;;;;;8.60;3.60;;;3.00;82.60;;;;;;5028825;28;20141;-74
2020/12/10 11:21:51;;;;;;;7.00;3.22;;;2.70;83.30;;;;;;5028428;28;20521;-74
2020/12/10 11:24:18;;;;;;;6.45;3.15;;;2.80;84.00;;;;;;5029496;28;20207;-74
2020/12/10 11:26:44;;;;;;;6.13;2.95;;;2.70;83.70;;;;;;5027277;28;20478;-74
2020/12/10 11:29:11;;;;;;;5.95;3.13;;;2.60;83.40;;;;;;5028932;28;20428;-75
2020/12/10 11:31:37;;;;;;;6.95;3.90;;;2.80;84.60;;;;;;5024842;28;20069;-75
2020/12/10 11:34:04;;;;;;;8.65;3.92;;;2.50;82.90;;;;;;5025204;28;20491;-74
2020/12/10 11:36:30;;;;;;;6.68;3.50;;;2.10;84.80;;;;;;5027203;28;20073;-75
2020/12/10 11:38:57;;;;;;;10.30;3.83;;;2.20;86.20;;;;;;5027173;28;20057;-74
2020/12/10 11:41:23;;;;;;;5.78;3.33;;;2.00;86.00;;;;;;5029051;28;20328;-74
2020/12/10 11:43:50;;;;;;;6.55;3.72;;;2.10;86.80;;;;;;5029003;28;20421;-74
2020/12/10 11:46:17;;;;;;;5.88;2.92;;;2.10;86.70;;;;;;5028956;28;20053;-75
2020/12/10 11:48:43;;;;;;;7.45;3.45;;;2.20;85.80;;;;;;5028014;28;20481;-74
2020/12/10 11:51:09;;;;;;;8.63;4.00;;;2.40;86.30;;;;;;5028724;28;20084;-74
2020/12/10 11:53:36;;;;;;;6.55;3.15;;;2.60;83.30;;;;;;5022185;28;20096;-74
2020/12/10 11:56:03;;;;;;;9.30;3.70;;;2.70;83.50;;;;;;5031645;28;20045;-74
2020/12/10 11:58:33;;;;;;;6.40;3.50;;;2.70;83.30;;;;;;5030521;28;20084;-75
2020/12/10 12:01:00;;;;;;;7.97;3.75;;;2.60;83.80;;;;;;5028892;28;20140;-74
2020/12/10 12:03:27;;;;;;;6.28;3.50;;;2.60;84.00;;;;;;5028656;28;20650;-74
2020/12/10 12:05:53;;;;;;;7.82;4.65;;;2.90;83.90;;;;;;5019764;28;20124;-74
2020/12/10 12:08:27;;;;;;;7.90;4.28;;;2.60;82.70;;;;;;5029475;28;20142;-74
2020/12/10 12:10:55;;;;;;;6.80;3.83;;;2.30;84.00;;;;;;5028629;28;20045;-75
2020/12/10 12:13:22;;;;;;;10.85;4.38;;;2.30;84.30;;;;;;5028734;28;20047;-74
2020/12/10 12:15:48;;;;;;;7.53;3.88;;;2.30;84.40;;;;;;5029530;28;20133;-74
2020/12/10 12:18:16;;;;;;;7.75;4.63;;;2.30;84.60;;;;;;5028807;28;20125;-75
2020/12/10 12:20:44;;;;;;;9.05;4.93;;;2.20;85.50;;;;;;5029157;28;20133;-74
2020/12/10 12:23:12;;;;;;;7.25;4.20;;;2.20;85.90;;;;;;5028571;28;20092;-74
2020/12/10 12:25:39;;;;;;;8.43;4.25;;;2.10;85.90;;;;;;5027986;28;20049;-74
2020/12/10 12:28:05;;;;;;;8.00;4.28;;;2.10;85.60;;;;;;5027851;28;20540;-73
2020/12/10 12:30:32;;;;;;;8.02;4.45;;;2.20;85.30;;;;;;5029082;28;20085;-73
2020/12/10 12:33:00;;;;;;;7.30;4.25;;;2.40;85.10;;;;;;5029490;28;20046;-74
2020/12/10 12:35:27;;;;;;;7.53;3.88;;;2.60;85.20;;;;;;5028332;28;20133;-74
2020/12/10 12:37:53;;;;;;;9.00;4.53;;;2.70;84.60;;;;;;5026427;28;20521;-74
2020/12/10 12:40:20;;;;;;;11.20;6.03;;;2.60;83.70;;;;;;5027736;28;20136;-72
2020/12/10 12:42:47;;;;;;;10.95;5.05;;;2.50;83.80;;;;;;5027590;28;20137;-72
2020/12/10 12:45:13;;;;;;;9.57;5.05;;;2.20;84.90;;;;;;5028056;28;20521;-72
2020/12/10 12:47:42;;;;;;;11.00;6.38;;;2.00;86.20;;;;;;5028772;28;20049;-73
2020/12/10 12:50:08;;;;;;;13.38;6.60;;;2.10;85.30;;;;;;5028322;28;20431;-72
2020/12/10 12:52:37;;;;;;;10.10;5.25;;;2.20;86.70;;;;;;5028276;28;20466;-71
2020/12/10 12:55:05;;;;;;;9.85;5.43;;;2.20;85.20;;;;;;5027951;28;20076;-72